createdAt,value
2022-11-28T00:00:26.351Z,5.63
2022-11-28T00:02:31.104Z,5.60
2022-11-28T00:04:35.830Z,5.59
2022-11-28T00:06:42.620Z,5.56
2022-11-28T00:08:47.997Z,5.50
2022-11-28T00:10:52.625Z,5.46
2022-11-28T00:12:57.163Z,5.45
2022-11-28T00:15:01.814Z,5.45
2022-11-28T00:17:06.406Z,5.45
2022-11-28T00:19:12.846Z,5.45
2022-11-28T00:21:18.060Z,5.47
2022-11-28T00:23:22.656Z,5.46
2022-11-28T00:25:27.356Z,5.45
2022-11-28T00:27:33.800Z,5.45
2022-11-28T00:29:40.022Z,5.42
2022-11-28T00:31:44.618Z,5.39
2022-11-28T00:33:49.640Z,5.39
2022-11-28T00:35:59.924Z,5.35
2022-11-28T00:38:04.635Z,5.34
2022-11-28T00:40:10.775Z,5.34
2022-11-28T00:42:15.327Z,5.33
2022-11-28T00:44:19.911Z,5.32
2022-11-28T00:46:25.412Z,5.29
2022-11-28T00:48:30.144Z,5.23
2022-11-28T00:50:34.750Z,5.22
2022-11-28T00:52:39.365Z,5.21
2022-11-28T00:54:44.188Z,5.22
2022-11-28T00:56:48.995Z,5.21
2022-11-28T00:58:54.036Z,5.20
2022-11-28T01:00:58.778Z,5.18
2022-11-28T01:03:03.913Z,5.17
2022-11-28T01:05:09.603Z,5.15
2022-11-28T01:07:14.308Z,5.13
2022-11-28T01:09:22.025Z,5.14
2022-11-28T01:11:27.209Z,5.17
2022-11-28T01:13:32.965Z,5.18
2022-11-28T01:15:42.413Z,5.18
2022-11-28T01:17:46.976Z,5.15
2022-11-28T01:19:51.600Z,5.12
2022-11-28T01:21:56.214Z,5.05
2022-11-28T01:24:00.891Z,5.02
2022-11-28T01:26:07.691Z,5.00
2022-11-28T01:28:12.300Z,4.98
2022-11-28T01:30:17.312Z,4.97
2022-11-28T01:32:21.950Z,4.93
2022-11-28T01:34:26.554Z,4.91
2022-11-28T01:36:31.495Z,4.89
2022-11-28T01:38:36.472Z,4.89
2022-11-28T01:40:47.632Z,4.87
2022-11-28T01:42:52.257Z,4.83
2022-11-28T01:45:16.343Z,4.82
2022-11-28T01:47:25.156Z,4.82
2022-11-28T01:49:35.064Z,4.81
2022-11-28T01:51:42.303Z,4.80
2022-11-28T01:53:48.437Z,4.78
2022-11-28T01:55:57.828Z,4.76
2022-11-28T01:58:02.461Z,4.73
2022-11-28T02:00:11.596Z,4.73
2022-11-28T02:02:25.924Z,4.68
2022-11-28T02:04:30.954Z,4.64
2022-11-28T02:06:35.906Z,4.63
2022-11-28T02:08:40.527Z,4.63
2022-11-28T02:11:07.929Z,4.62
2022-11-28T02:13:25.838Z,4.62
2022-11-28T02:15:54.156Z,4.62
2022-11-28T02:18:12.767Z,4.63
2022-11-28T02:20:48.072Z,4.63
2022-11-28T02:22:59.698Z,4.63
2022-11-28T02:25:29.502Z,4.62
2022-11-28T02:28:12.471Z,4.62
2022-11-28T02:30:28.585Z,4.68
2022-11-28T02:32:42.854Z,4.72
2022-11-28T02:34:55.077Z,4.75
2022-11-28T02:37:06.543Z,4.72
2022-11-28T02:39:20.894Z,4.71
2022-11-28T02:41:31.753Z,4.72
2022-11-28T02:43:44.508Z,4.72
2022-11-28T02:45:55.284Z,4.73
2022-11-28T02:48:07.320Z,4.74
2022-11-28T02:50:17.127Z,4.76
2022-11-28T02:52:26.346Z,4.77
2022-11-28T02:54:31.412Z,4.78
2022-11-28T02:56:36.066Z,4.80
2022-11-28T02:58:40.683Z,4.81
2022-11-28T03:00:47.367Z,4.81
2022-11-28T03:03:04.022Z,4.81
2022-11-28T03:05:19.723Z,4.82
2022-11-28T03:07:36.824Z,4.83
2022-11-28T03:09:53.176Z,4.84
2022-11-28T03:12:11.727Z,4.85
2022-11-28T03:14:24.319Z,4.83
2022-11-28T03:16:36.310Z,4.83
2022-11-28T03:18:44.380Z,4.84
2022-11-28T03:20:53.749Z,4.85
2022-11-28T03:23:11.761Z,4.88
2022-11-28T03:25:27.533Z,4.86
2022-11-28T03:27:37.429Z,4.87
2022-11-28T03:29:45.058Z,4.87
2022-11-28T03:31:55.977Z,4.86
2022-11-28T03:34:04.542Z,4.85
2022-11-28T03:36:12.718Z,4.85
2022-11-28T03:38:21.840Z,4.86
2022-11-28T03:40:29.537Z,4.85
2022-11-28T03:42:38.291Z,4.85
2022-11-28T03:44:48.295Z,4.87
2022-11-28T03:46:55.088Z,4.89
2022-11-28T03:49:00.835Z,4.90
2022-11-28T03:51:11.201Z,4.90
2022-11-28T03:53:21.191Z,4.91
2022-11-28T03:55:34.759Z,4.92
2022-11-28T03:57:45.079Z,4.92
2022-11-28T03:59:52.017Z,4.96
2022-11-28T04:02:02.608Z,4.98
2022-11-28T04:04:16.047Z,4.99
2022-11-28T04:06:27.861Z,4.98
2022-11-28T04:08:39.035Z,4.96
2022-11-28T04:10:52.385Z,4.94
2022-11-28T04:13:05.577Z,4.95
2022-11-28T04:15:19.059Z,4.95
2022-11-28T04:17:31.858Z,4.95
2022-11-28T04:19:42.072Z,4.94
2022-11-28T04:21:52.996Z,4.95
2022-11-28T04:24:02.290Z,4.97
2022-11-28T04:26:11.730Z,4.98
2022-11-28T04:28:19.452Z,4.95
2022-11-28T04:30:24.084Z,4.93
2022-11-28T04:32:31.972Z,4.94
2022-11-28T04:34:39.773Z,4.94
2022-11-28T04:36:46.361Z,4.94
2022-11-28T04:38:53.683Z,4.94
2022-11-28T04:41:05.214Z,4.96
2022-11-28T04:43:16.012Z,4.97
2022-11-28T04:45:26.589Z,4.99
2022-11-28T04:47:31.325Z,4.98
2022-11-28T04:49:36.175Z,4.94
2022-11-28T04:51:50.024Z,4.95
2022-11-28T04:54:04.677Z,4.95
2022-11-28T04:56:16.941Z,4.96
2022-11-28T04:58:26.559Z,4.96
2022-11-28T05:00:33.363Z,4.97
2022-11-28T05:02:40.871Z,4.98
2022-11-28T05:04:45.960Z,4.97
2022-11-28T05:06:50.540Z,4.93
2022-11-28T05:08:55.151Z,4.94
2022-11-28T05:10:59.761Z,4.96
2022-11-28T05:13:04.407Z,4.95
2022-11-28T05:15:11.080Z,4.90
2022-11-28T05:17:15.715Z,4.88
2022-11-28T05:19:20.375Z,4.86
2022-11-28T05:21:24.968Z,4.85
2022-11-28T05:23:29.653Z,4.84
2022-11-28T05:25:34.276Z,4.83
2022-11-28T05:27:38.913Z,4.82
2022-11-28T05:29:46.868Z,4.82
2022-11-28T05:31:54.246Z,4.80
2022-11-28T05:33:59.013Z,4.80
2022-11-28T05:36:11.392Z,4.81
2022-11-28T05:38:17.652Z,4.81
2022-11-28T05:40:22.321Z,4.79
2022-11-28T05:42:26.936Z,4.78
2022-11-28T05:44:31.562Z,4.75
2022-11-28T05:46:36.143Z,4.73
2022-11-28T05:48:40.818Z,4.72
2022-11-28T05:50:45.442Z,4.68
2022-11-28T05:52:50.034Z,4.67
2022-11-28T05:54:55.742Z,4.69
2022-11-28T05:57:00.330Z,4.71
2022-11-28T05:59:04.918Z,4.72
2022-11-28T06:01:15.095Z,4.72
2022-11-28T06:03:19.700Z,4.74
2022-11-28T06:05:41.651Z,4.75
2022-11-28T06:07:47.209Z,4.76
2022-11-28T06:09:51.870Z,4.78
2022-11-28T06:11:56.465Z,4.78
2022-11-28T06:14:01.560Z,4.78
2022-11-28T06:16:09.211Z,4.79
2022-11-28T06:18:13.885Z,4.81
2022-11-28T06:20:18.740Z,4.81
2022-11-28T06:22:23.593Z,4.81
2022-11-28T06:24:28.223Z,4.81
2022-11-28T06:26:33.029Z,4.82
2022-11-28T06:28:38.104Z,4.84
2022-11-28T06:30:44.572Z,4.85
2022-11-28T06:32:49.140Z,4.84
2022-11-28T06:34:53.802Z,4.85
2022-11-28T06:36:58.795Z,4.87
2022-11-28T06:39:03.561Z,4.88
2022-11-28T06:41:10.092Z,4.89
2022-11-28T06:43:14.667Z,4.88
2022-11-28T06:45:19.517Z,4.88
2022-11-28T06:47:24.106Z,4.88
2022-11-28T06:49:28.815Z,4.89
2022-11-28T06:51:33.448Z,4.88
2022-11-28T06:53:38.065Z,4.89
2022-11-28T06:55:42.681Z,4.90
2022-11-28T06:57:47.385Z,4.90
2022-11-28T06:59:52.075Z,4.91
2022-11-28T07:01:56.724Z,4.94
2022-11-28T07:04:01.723Z,4.95
2022-11-28T07:06:07.368Z,4.98
2022-11-28T07:08:12.048Z,4.99
2022-11-28T07:10:17.040Z,5.00
2022-11-28T07:12:21.718Z,5.02
2022-11-28T07:14:26.333Z,5.03
2022-11-28T07:16:32.796Z,5.03
2022-11-28T07:18:37.567Z,5.03
2022-11-28T07:20:42.167Z,5.04
2022-11-28T07:22:47.280Z,5.03
2022-11-28T07:24:51.976Z,5.04
2022-11-28T07:26:56.612Z,5.08
2022-11-28T07:29:01.254Z,5.11
2022-11-28T07:31:07.833Z,5.10
2022-11-28T07:33:12.452Z,5.13
2022-11-28T07:35:17.335Z,5.16
2022-11-28T07:37:21.938Z,5.22
2022-11-28T07:39:26.599Z,5.27
2022-11-28T07:41:31.546Z,5.27
2022-11-28T07:43:36.563Z,5.28
2022-11-28T07:45:59.362Z,5.28
2022-11-28T07:48:05.774Z,5.30
2022-11-28T07:50:11.418Z,5.31
2022-11-28T07:52:16.062Z,5.34
2022-11-28T07:54:20.741Z,5.39
2022-11-28T07:56:35.108Z,5.43
2022-11-28T07:58:50.073Z,5.47
2022-11-28T08:00:54.638Z,5.48
2022-11-28T08:02:59.329Z,5.53
2022-11-28T08:05:04.128Z,5.55
2022-11-28T08:07:12.071Z,5.59
2022-11-28T08:09:16.694Z,5.63
2022-11-28T08:11:22.946Z,5.63
2022-11-28T08:13:27.835Z,5.66
2022-11-28T08:15:32.432Z,5.69
2022-11-28T08:17:37.068Z,5.71
2022-11-28T08:19:41.656Z,5.75
2022-11-28T08:21:46.342Z,5.78
2022-11-28T08:23:52.199Z,5.81
2022-11-28T08:25:56.797Z,5.86
2022-11-28T08:28:01.399Z,5.91
2022-11-28T08:30:07.668Z,5.96
2022-11-28T08:32:12.250Z,6.02
2022-11-28T08:34:16.936Z,6.08
2022-11-28T08:36:22.216Z,6.11
2022-11-28T08:38:26.773Z,6.15
2022-11-28T08:40:31.382Z,6.18
2022-11-28T08:42:36.293Z,6.21
2022-11-28T08:44:40.899Z,6.27
2022-11-28T08:46:45.620Z,6.34
2022-11-28T08:48:51.442Z,6.42
2022-11-28T08:50:56.031Z,6.49
2022-11-28T08:53:07.323Z,6.52
2022-11-28T08:55:12.709Z,6.56
2022-11-28T08:57:17.332Z,6.62
2022-11-28T08:59:22.165Z,6.70
2022-11-28T09:01:27.647Z,6.80
2022-11-28T09:03:32.727Z,6.90
2022-11-28T09:05:37.698Z,7.02
2022-11-28T09:07:42.625Z,7.16
2022-11-28T09:09:47.963Z,7.24
2022-11-28T09:11:53.210Z,7.26
2022-11-28T09:13:59.482Z,7.27
2022-11-28T09:16:04.890Z,7.34
2022-11-28T09:18:11.242Z,7.39
2022-11-28T09:20:16.233Z,7.42
2022-11-28T09:22:21.116Z,7.42
2022-11-28T09:24:25.855Z,7.41
2022-11-28T09:26:30.633Z,7.43
2022-11-28T09:28:35.501Z,7.46
2022-11-28T09:30:40.286Z,7.45
2022-11-28T09:32:47.909Z,7.43
2022-11-28T09:34:52.807Z,7.41
2022-11-28T09:37:00.821Z,7.41
2022-11-28T09:39:11.058Z,7.43
2022-11-28T09:41:31.663Z,7.46
2022-11-28T09:43:39.177Z,7.50
2022-11-28T09:45:45.694Z,7.51
2022-11-28T09:47:54.630Z,7.50
2022-11-28T09:50:03.223Z,7.48
2022-11-28T09:52:16.504Z,7.46
2022-11-28T09:54:28.410Z,7.48
2022-11-28T09:56:33.162Z,7.47
2022-11-28T09:58:46.092Z,7.47
2022-11-28T10:00:56.154Z,7.48
2022-11-28T10:03:33.137Z,7.51
2022-11-28T10:05:42.851Z,7.53
2022-11-28T10:08:03.382Z,7.57
2022-11-28T10:10:21.091Z,7.63
2022-11-28T10:12:40.300Z,7.70
2022-11-28T10:14:58.131Z,7.79
2022-11-28T10:17:15.015Z,7.84
2022-11-28T10:19:52.927Z,7.89
2022-11-28T10:21:59.174Z,7.92
2022-11-28T10:24:12.341Z,7.97
2022-11-28T10:26:24.063Z,8.03
2022-11-28T10:28:34.319Z,8.10
2022-11-28T10:30:41.392Z,8.16
2022-11-28T10:32:51.760Z,8.18
2022-11-28T10:35:01.576Z,8.22
2022-11-28T10:37:12.704Z,8.23
2022-11-28T10:39:17.695Z,8.27
2022-11-28T10:41:32.056Z,8.32
2022-11-28T10:43:43.591Z,8.36
2022-11-28T10:45:59.127Z,8.41
2022-11-28T10:50:57.257Z,8.50
2022-11-28T10:53:08.572Z,8.52
2022-11-28T10:55:27.604Z,8.52
2022-11-28T10:57:40.536Z,8.53
2022-11-28T10:59:59.687Z,8.55
2022-11-28T11:02:18.101Z,8.55
2022-11-28T11:04:26.047Z,8.56
2022-11-28T11:06:41.406Z,8.54
2022-11-28T11:08:56.494Z,8.55
2022-11-28T11:11:17.583Z,8.55
2022-11-28T11:13:23.991Z,8.57
2022-11-28T11:15:33.692Z,8.57
2022-11-28T11:17:38.330Z,8.56
2022-11-28T11:19:43.180Z,8.58
2022-11-28T11:22:01.004Z,8.57
2022-11-28T11:24:17.860Z,8.58
2022-11-28T11:26:27.293Z,8.58
2022-11-28T11:28:42.617Z,8.56
2022-11-28T11:30:47.824Z,8.55
2022-11-28T11:32:53.134Z,8.53
2022-11-28T11:34:59.620Z,8.49
2022-11-28T11:37:20.149Z,8.46
2022-11-28T11:39:25.286Z,8.40
2022-11-28T11:41:32.501Z,8.38
2022-11-28T11:43:38.790Z,8.39
2022-11-28T11:45:45.215Z,8.39
2022-11-28T11:47:53.096Z,8.35
2022-11-28T11:50:06.148Z,8.32
2022-11-28T11:52:22.512Z,8.28
2022-11-28T11:54:27.094Z,8.26
2022-11-28T11:56:35.743Z,8.24
2022-11-28T11:58:46.877Z,8.23
2022-11-28T12:00:55.644Z,8.22
2022-11-28T12:03:03.978Z,8.15
2022-11-28T12:05:13.284Z,8.11
2022-11-28T12:07:26.382Z,8.09
2022-11-28T12:09:36.195Z,8.06
2022-11-28T12:11:47.100Z,8.01
2022-11-28T12:13:52.761Z,7.98
2022-11-28T12:16:06.187Z,7.96
2022-11-28T12:18:24.060Z,7.94
2022-11-28T12:20:38.702Z,7.89
2022-11-28T12:22:52.096Z,7.84
2022-11-28T12:25:13.862Z,7.78
2022-11-28T12:27:32.427Z,7.74
2022-11-28T12:29:49.208Z,7.73
2022-11-28T12:32:03.046Z,7.71
2022-11-28T12:34:18.493Z,7.71
2022-11-28T12:36:29.933Z,7.69
2022-11-28T12:38:53.531Z,7.69
2022-11-28T12:41:12.539Z,7.66
2022-11-28T12:43:30.774Z,7.64
2022-11-28T12:45:47.136Z,7.60
2022-11-28T12:48:03.195Z,7.58
2022-11-28T12:50:22.436Z,7.55
2022-11-28T12:52:36.996Z,7.51
2022-11-28T12:55:05.086Z,7.49
2022-11-28T12:57:16.679Z,7.47
2022-11-28T12:59:28.584Z,7.49
2022-11-28T13:01:48.112Z,7.46
2022-11-28T13:04:02.480Z,7.40
2022-11-28T13:06:19.255Z,7.36
2022-11-28T13:08:48.445Z,7.33
2022-11-28T13:11:05.680Z,7.29
2022-11-28T13:13:17.627Z,7.23
2022-11-28T13:15:35.727Z,7.17
2022-11-28T13:17:46.813Z,7.16
2022-11-28T13:19:58.619Z,7.16
2022-11-28T13:22:10.077Z,7.15
2022-11-28T13:24:28.587Z,7.14
2022-11-28T13:26:46.265Z,7.10
2022-11-28T13:28:59.122Z,7.07
2022-11-28T13:31:26.251Z,7.04
2022-11-28T13:33:48.649Z,7.00
2022-11-28T13:35:54.015Z,6.96
2022-11-28T13:40:36.141Z,6.92
2022-11-28T13:43:08.363Z,6.88
2022-11-28T13:47:45.939Z,6.90
2022-11-28T13:49:50.825Z,6.90
2022-11-28T13:52:22.365Z,6.90
2022-11-28T13:54:43.925Z,6.85
2022-11-28T13:57:04.346Z,6.79
2022-11-28T13:59:19.752Z,6.75
2022-11-28T14:01:26.246Z,6.74
2022-11-28T14:03:34.063Z,6.74
2022-11-28T14:05:41.672Z,6.73
2022-11-28T14:07:48.003Z,6.74
2022-11-28T14:10:02.540Z,6.73
2022-11-28T14:12:19.140Z,6.72
2022-11-28T14:14:40.853Z,6.69
2022-11-28T14:16:57.923Z,6.67
2022-11-28T14:19:22.385Z,6.60
2022-11-28T14:21:39.105Z,6.54
2022-11-28T14:23:51.211Z,6.49
2022-11-28T14:25:56.694Z,6.45
2022-11-28T14:28:05.444Z,6.44
2022-11-28T14:30:26.440Z,6.43
2022-11-28T14:32:36.287Z,6.41
2022-11-28T14:34:44.337Z,6.40
2022-11-28T14:36:49.297Z,6.39
2022-11-28T14:39:10.010Z,6.38
2022-11-28T14:41:15.592Z,6.33
2022-11-28T14:43:27.525Z,6.29
2022-11-28T14:45:45.626Z,6.26
2022-11-28T14:48:19.307Z,6.23
2022-11-28T14:50:59.413Z,6.19
2022-11-28T14:53:40.789Z,6.15
2022-11-28T14:55:45.567Z,6.10
2022-11-28T14:57:58.953Z,6.08
2022-11-28T15:00:07.975Z,6.05
2022-11-28T15:02:31.902Z,6.02
2022-11-28T15:04:58.876Z,5.96
2022-11-28T15:07:08.075Z,5.93
2022-11-28T15:09:21.336Z,5.92
2022-11-28T15:11:57.345Z,5.91
2022-11-28T15:14:19.338Z,5.86
2022-11-28T15:16:28.262Z,5.82
2022-11-28T15:18:34.937Z,5.80
2022-11-28T15:20:45.885Z,5.78
2022-11-28T15:22:50.678Z,5.75
2022-11-28T15:24:55.369Z,5.76
2022-11-28T15:27:22.564Z,5.74
2022-11-28T15:29:28.586Z,5.74
2022-11-28T15:31:33.367Z,5.74
2022-11-28T15:33:42.651Z,5.70
2022-11-28T15:36:02.528Z,5.67
2022-11-28T15:38:12.793Z,5.68
2022-11-28T15:40:22.025Z,5.68
2022-11-28T15:42:29.845Z,5.67
2022-11-28T15:44:34.742Z,5.66
2022-11-28T15:46:39.609Z,5.68
2022-11-28T15:48:51.182Z,5.68
2022-11-28T15:50:56.044Z,5.67
2022-11-28T15:53:03.837Z,5.66
2022-11-28T15:55:17.795Z,5.63
2022-11-28T15:57:24.670Z,5.60
2022-11-28T15:59:29.913Z,5.57
2022-11-28T16:01:35.138Z,5.52
2022-11-28T16:03:47.261Z,5.49
2022-11-28T16:05:54.927Z,5.47
2022-11-28T16:08:00.049Z,5.44
2022-11-28T16:10:08.204Z,5.44
2022-11-28T16:12:15.804Z,5.44
2022-11-28T16:14:25.730Z,5.44
2022-11-28T16:16:33.123Z,5.44
2022-11-28T16:18:37.828Z,5.42
2022-11-28T16:20:43.735Z,5.37
2022-11-28T16:22:48.673Z,5.35
2022-11-28T16:24:55.804Z,5.32
2022-11-28T16:27:02.285Z,5.31
2022-11-28T16:29:14.627Z,5.32
2022-11-28T16:31:22.839Z,5.29
2022-11-28T16:33:39.263Z,5.28
2022-11-28T16:35:46.713Z,5.28
2022-11-28T16:37:53.010Z,5.27
2022-11-28T16:40:14.487Z,5.27
2022-11-28T16:42:23.501Z,5.26
2022-11-28T16:44:28.998Z,5.23
2022-11-28T16:46:36.556Z,5.21
2022-11-28T16:48:49.734Z,5.20
2022-11-28T16:51:29.589Z,5.18
2022-11-28T16:53:48.047Z,5.17
2022-11-28T16:55:53.399Z,5.17
2022-11-28T16:58:12.324Z,5.21
2022-11-28T17:00:19.220Z,5.24
2022-11-28T17:02:25.706Z,5.29
2022-11-28T17:04:32.994Z,5.32
2022-11-28T17:06:39.184Z,5.34
2022-11-28T17:08:47.688Z,5.34
2022-11-28T17:10:53.199Z,5.33
2022-11-28T17:12:58.683Z,5.31
2022-11-28T17:15:06.708Z,5.30
2022-11-28T17:17:16.608Z,5.27
2022-11-28T17:19:21.964Z,5.25
2022-11-28T17:21:35.838Z,5.22
2022-11-28T17:23:42.837Z,5.20
2022-11-28T17:25:48.895Z,5.19
2022-11-28T17:27:54.753Z,5.18
2022-11-28T17:30:00.772Z,5.17
2022-11-28T17:32:07.470Z,5.16
2022-11-28T17:34:20.534Z,5.16
2022-11-28T17:36:26.942Z,5.18
2022-11-28T17:38:32.214Z,5.19
2022-11-28T17:40:37.730Z,5.19
2022-11-28T17:42:44.626Z,5.17
2022-11-28T17:44:50.517Z,5.16
2022-11-28T17:47:00.210Z,5.19
2022-11-28T17:49:05.941Z,5.21
2022-11-28T17:51:12.657Z,5.23
2022-11-28T17:53:20.504Z,5.27
2022-11-28T17:55:26.511Z,5.28
2022-11-28T17:57:31.717Z,5.25
2022-11-28T17:59:37.074Z,5.24
2022-11-28T18:01:43.427Z,5.24
2022-11-28T18:03:49.728Z,5.24
2022-11-28T18:05:57.155Z,5.26
2022-11-28T18:08:03.911Z,5.27
2022-11-28T18:10:11.997Z,5.26
2022-11-28T18:12:17.891Z,5.27
2022-11-28T18:14:23.549Z,5.26
2022-11-28T18:16:31.445Z,5.23
2022-11-28T18:18:38.433Z,5.21
2022-11-28T18:20:46.989Z,5.18
2022-11-28T18:22:59.880Z,5.17
2022-11-28T18:25:12.025Z,5.15
2022-11-28T18:27:18.591Z,5.15
2022-11-28T18:29:25.162Z,5.18
2022-11-28T18:31:31.994Z,5.20
2022-11-28T18:33:39.375Z,5.17
2022-11-28T18:35:45.000Z,5.16
2022-11-28T18:37:51.637Z,5.17
2022-11-28T18:40:01.624Z,5.19
2022-11-28T18:42:09.737Z,5.22
2022-11-28T18:44:16.135Z,5.22
2022-11-28T18:46:22.249Z,5.24
2022-11-28T18:48:29.264Z,5.22
2022-11-28T18:50:38.016Z,5.23
2022-11-28T18:52:46.541Z,5.23
2022-11-28T18:54:53.911Z,5.26
2022-11-28T18:57:00.139Z,5.25
2022-11-28T18:59:08.592Z,5.23
2022-11-28T19:01:20.112Z,5.24
2022-11-28T19:03:28.913Z,5.25
2022-11-28T19:05:41.644Z,5.27
2022-11-28T19:07:51.331Z,5.27
2022-11-28T19:09:57.825Z,5.27
2022-11-28T19:12:05.780Z,5.26
2022-11-28T19:14:14.960Z,5.22
2022-11-28T19:16:23.398Z,5.19
2022-11-28T19:18:30.089Z,5.20
2022-11-28T19:20:41.279Z,5.20
2022-11-28T19:22:48.416Z,5.22
2022-11-28T19:24:55.030Z,5.20
2022-11-28T19:27:02.043Z,5.18
2022-11-28T19:29:10.344Z,5.17
2022-11-28T19:31:18.234Z,5.17
2022-11-28T19:33:25.117Z,5.17
2022-11-28T19:35:33.559Z,5.18
2022-11-28T19:37:40.460Z,5.18
2022-11-28T19:39:47.181Z,5.17
2022-11-28T19:41:55.722Z,5.19
2022-11-28T19:44:12.640Z,5.20
2022-11-28T19:46:18.729Z,5.19
2022-11-28T19:48:26.413Z,5.16
2022-11-28T19:50:33.246Z,5.14
2022-11-28T19:52:42.324Z,5.11
2022-11-28T19:54:51.581Z,5.10
2022-11-28T19:56:58.663Z,5.10
2022-11-28T19:59:05.477Z,5.05
2022-11-28T20:01:17.184Z,5.00
2022-11-28T20:03:24.822Z,4.98
2022-11-28T20:05:35.703Z,4.96
2022-11-28T20:07:42.418Z,4.95
2022-11-28T20:09:50.706Z,4.96
2022-11-28T20:12:00.343Z,4.96
2022-11-28T20:14:13.264Z,4.97
2022-11-28T20:16:20.410Z,4.96
2022-11-28T20:18:27.184Z,4.95
2022-11-28T20:20:37.438Z,4.93
2022-11-28T20:22:47.080Z,4.95
2022-11-28T20:24:53.745Z,4.96
2022-11-28T20:27:08.616Z,4.95
2022-11-28T20:29:16.897Z,4.94
2022-11-28T20:31:26.644Z,4.93
2022-11-28T20:33:34.883Z,4.92
2022-11-28T20:35:40.910Z,4.89
2022-11-28T20:37:47.348Z,4.88
2022-11-28T20:39:53.161Z,4.87
2022-11-28T20:41:59.663Z,4.88
2022-11-28T20:44:10.817Z,4.86
2022-11-28T20:46:19.304Z,4.85
2022-11-28T20:48:27.953Z,4.85
2022-11-28T20:50:34.224Z,4.85
2022-11-28T20:52:40.465Z,4.84
2022-11-28T20:54:46.992Z,4.85
2022-11-28T20:57:20.347Z,4.85
2022-11-28T20:59:25.587Z,4.87
2022-11-28T21:01:34.879Z,4.87
2022-11-28T21:03:40.949Z,4.88
2022-11-28T21:05:47.804Z,4.88
2022-11-28T21:07:53.657Z,4.88
2022-11-28T21:09:59.523Z,4.85
2022-11-28T21:12:07.385Z,4.84
2022-11-28T21:14:16.104Z,4.85
2022-11-28T21:16:23.930Z,4.86
2022-11-28T21:18:29.955Z,4.88
2022-11-28T21:20:38.566Z,4.88
2022-11-28T21:22:45.055Z,4.88
2022-11-28T21:24:50.719Z,4.85
2022-11-28T21:26:55.954Z,4.84
2022-11-28T21:29:03.441Z,4.82
2022-11-28T21:31:10.940Z,4.81
2022-11-28T21:33:15.569Z,4.81
2022-11-28T21:35:20.326Z,4.82
2022-11-28T21:37:25.027Z,4.83
2022-11-28T21:39:29.767Z,4.86
2022-11-28T21:41:34.729Z,4.86
2022-11-28T21:43:40.132Z,4.83
2022-11-28T21:45:45.216Z,4.80
2022-11-28T21:47:50.493Z,4.79
2022-11-28T21:49:55.579Z,4.78
2022-11-28T21:52:00.218Z,4.77
2022-11-28T21:54:05.334Z,4.77
2022-11-28T21:56:11.328Z,4.77
2022-11-28T21:58:16.056Z,4.77
2022-11-28T22:00:45.940Z,4.77
2022-11-28T22:02:46.316Z,4.76
2022-11-28T22:04:50.984Z,4.76
2022-11-28T22:06:55.643Z,4.75
2022-11-28T22:09:05.767Z,4.75
2022-11-28T22:11:13.846Z,4.75
2022-11-28T22:13:18.462Z,4.74
2022-11-28T22:15:23.132Z,4.72
2022-11-28T22:17:27.742Z,4.71
2022-11-28T22:19:32.695Z,4.71
2022-11-28T22:21:56.949Z,4.68
2022-11-28T22:24:02.145Z,4.65
2022-11-28T22:26:07.572Z,4.65
2022-11-28T22:28:12.317Z,4.64
2022-11-28T22:30:17.462Z,4.63
2022-11-28T22:32:22.252Z,4.62
2022-11-28T22:34:27.029Z,4.61
2022-11-28T22:36:31.773Z,4.60
2022-11-28T22:38:37.264Z,4.60
2022-11-28T22:40:42.018Z,4.59
2022-11-28T22:42:46.602Z,4.58
2022-11-28T22:44:51.285Z,4.56
2022-11-28T22:46:55.894Z,4.53
2022-11-28T22:49:02.050Z,4.53
2022-11-28T22:51:10.093Z,4.54
2022-11-28T22:53:15.416Z,4.53
2022-11-28T22:55:20.562Z,4.53
2022-11-28T22:57:25.521Z,4.53
2022-11-28T22:59:30.400Z,4.55
2022-11-28T23:01:35.846Z,4.54
2022-11-28T23:03:41.059Z,4.51
2022-11-28T23:05:49.189Z,4.51
2022-11-28T23:07:55.586Z,4.52
2022-11-28T23:10:00.292Z,4.55
2022-11-28T23:12:05.893Z,4.58
2022-11-28T23:14:13.412Z,4.56
2022-11-28T23:16:22.072Z,4.54
2022-11-28T23:18:26.838Z,4.52
2022-11-28T23:20:31.458Z,4.52
2022-11-28T23:22:36.090Z,4.52
2022-11-28T23:24:40.863Z,4.51
2022-11-28T23:26:45.941Z,4.51
2022-11-28T23:28:51.397Z,4.53
2022-11-28T23:30:55.999Z,4.52
2022-11-28T23:33:01.222Z,4.52
2022-11-28T23:35:06.522Z,4.51
2022-11-28T23:37:11.357Z,4.47
2022-11-28T23:39:17.522Z,4.45
2022-11-28T23:41:22.899Z,4.47
2022-11-28T23:43:27.505Z,4.45
2022-11-28T23:45:32.097Z,4.46
2022-11-28T23:47:36.726Z,4.47
2022-11-28T23:49:41.311Z,4.47
2022-11-28T23:51:46.021Z,4.46
2022-11-28T23:53:50.890Z,4.43
2022-11-28T23:56:03.853Z,4.41
2022-11-28T23:58:08.504Z,4.40
